createdAt,value
2023-03-21T00:04:50.989Z,30.06
2023-03-21T00:09:45.708Z,28.49
2023-03-21T00:14:51.792Z,31.44
2023-03-21T00:19:57.974Z,34.33
2023-03-21T00:25:04.165Z,31.13
2023-03-21T00:30:10.317Z,32.37
2023-03-21T00:35:51.651Z,32.95
2023-03-21T00:40:27.940Z,29.16
2023-03-21T00:45:27.852Z,32.47
2023-03-21T00:50:34.024Z,29.33
2023-03-21T00:55:40.173Z,31.00
2023-03-21T01:00:46.382Z,33.09
2023-03-21T01:05:52.439Z,31.43
2023-03-21T01:10:58.785Z,31.64
2023-03-21T01:16:04.908Z,27.62
2023-03-21T01:21:11.182Z,29.70
2023-03-21T01:26:17.318Z,32.18
2023-03-21T01:31:23.584Z,31.62
2023-03-21T01:36:29.638Z,35.94
2023-03-21T01:41:42.990Z,36.23
2023-03-21T01:47:03.540Z,32.22
2023-03-21T01:51:48.439Z,39.44
2023-03-21T01:56:54.617Z,35.16
2023-03-21T02:02:00.937Z,38.46
2023-03-21T02:07:07.329Z,37.13
2023-03-21T02:12:13.542Z,38.94
2023-03-21T02:17:19.658Z,43.51
2023-03-21T02:22:25.835Z,43.78
2023-03-21T02:28:23.377Z,41.17
2023-03-21T02:33:29.692Z,37.22
2023-03-21T02:38:37.461Z,41.63
2023-03-21T02:43:46.926Z,38.12
2023-03-21T02:48:53.159Z,37.12
2023-03-21T02:54:24.625Z,36.42
2023-03-21T02:59:05.108Z,39.28
2023-03-21T03:04:11.663Z,38.48
2023-03-21T03:09:17.796Z,36.03
2023-03-21T03:14:42.021Z,37.74
2023-03-21T03:19:31.159Z,35.97
2023-03-21T03:24:35.870Z,37.82
2023-03-21T03:29:42.081Z,32.96
2023-03-21T03:34:48.259Z,36.39
2023-03-21T03:39:54.665Z,35.01
2023-03-21T03:45:00.960Z,38.39
2023-03-21T03:50:07.052Z,40.66
2023-03-21T03:55:13.570Z,39.68
2023-03-21T04:00:19.753Z,41.42
2023-03-21T04:05:26.154Z,42.10
2023-03-21T04:10:32.247Z,41.41
2023-03-21T04:15:38.604Z,42.12
2023-03-21T04:20:45.049Z,40.66
2023-03-21T04:25:56.683Z,37.53
2023-03-21T04:31:04.916Z,44.21
2023-03-21T04:36:02.374Z,43.09
2023-03-21T04:41:08.403Z,42.91
2023-03-21T04:46:14.627Z,50.62
2023-03-21T04:51:20.648Z,51.69
2023-03-21T04:56:27.676Z,46.80
2023-03-21T05:01:33.781Z,53.03
2023-03-21T05:06:39.903Z,49.00
2023-03-21T05:11:46.081Z,50.27
2023-03-21T05:16:52.302Z,57.82
2023-03-21T05:22:13.278Z,53.18
2023-03-21T05:27:01.542Z,55.57
2023-03-21T05:32:05.086Z,52.82
2023-03-21T05:37:11.303Z,56.22
2023-03-21T05:42:17.439Z,58.13
2023-03-21T05:47:23.786Z,57.00
2023-03-21T05:52:29.993Z,54.08
2023-03-21T05:57:36.165Z,48.89
2023-03-21T06:02:43.047Z,52.88
2023-03-21T06:07:49.228Z,51.09
2023-03-21T06:12:55.414Z,53.31
2023-03-21T06:18:04.333Z,46.15
2023-03-21T06:23:10.395Z,53.00
2023-03-21T06:28:16.865Z,47.31
2023-03-21T06:33:23.545Z,50.68
2023-03-21T06:38:29.772Z,44.85
2023-03-21T06:43:35.892Z,45.14
2023-03-21T06:48:42.238Z,45.19
2023-03-21T06:53:48.316Z,45.64
2023-03-21T06:58:54.560Z,39.78
2023-03-21T07:04:00.633Z,40.47
2023-03-21T07:09:06.815Z,36.45
2023-03-21T07:14:12.951Z,40.24
2023-03-21T07:19:19.210Z,31.88
2023-03-21T07:24:25.318Z,33.61
2023-03-21T07:29:31.501Z,31.98
2023-03-21T07:34:37.626Z,33.30
2023-03-21T07:39:43.899Z,30.24
2023-03-21T07:44:50.021Z,30.20
2023-03-21T07:49:56.326Z,26.55
2023-03-21T07:55:02.857Z,23.93
2023-03-21T08:00:09.039Z,23.45
2023-03-21T08:05:15.108Z,22.68
2023-03-21T08:10:21.338Z,26.13
2023-03-21T08:15:27.428Z,21.80
2023-03-21T08:20:33.726Z,24.17
2023-03-21T08:25:40.114Z,19.61
2023-03-21T08:30:45.559Z,19.30
2023-03-21T08:35:51.755Z,22.07
2023-03-21T08:41:00.160Z,18.78
2023-03-21T08:46:03.682Z,18.15
2023-03-21T08:51:09.973Z,19.75
2023-03-21T08:56:16.028Z,16.77
2023-03-21T09:01:22.278Z,14.23
2023-03-21T09:06:28.315Z,16.57
2023-03-21T09:11:34.550Z,15.33
2023-03-21T09:16:40.754Z,15.89
2023-03-21T09:21:47.065Z,14.35
2023-03-21T09:26:53.218Z,15.71
2023-03-21T09:31:59.477Z,15.90
2023-03-21T09:37:05.552Z,14.30
2023-03-21T09:42:13.188Z,15.91
2023-03-21T09:47:17.347Z,13.12
2023-03-21T09:52:23.487Z,14.33
2023-03-21T09:57:29.610Z,14.61
2023-03-21T10:02:35.811Z,13.01
2023-03-21T10:07:41.880Z,13.49
2023-03-21T10:12:48.184Z,13.10
2023-03-21T10:17:54.258Z,13.29
2023-03-21T10:23:00.524Z,11.34
2023-03-21T10:28:06.667Z,12.19
2023-03-21T10:33:13.000Z,15.38
2023-03-21T10:38:19.008Z,13.43
2023-03-21T10:43:25.227Z,13.34
2023-03-21T10:48:31.414Z,13.80
2023-03-21T10:53:37.539Z,14.11
2023-03-21T10:58:43.611Z,16.29
2023-03-21T11:03:49.911Z,16.08
2023-03-21T11:08:56.007Z,13.54
2023-03-21T11:14:02.207Z,13.45
2023-03-21T11:19:08.285Z,14.04
2023-03-21T11:24:14.520Z,17.56
2023-03-21T11:29:20.616Z,14.16
2023-03-21T11:34:26.839Z,15.62
2023-03-21T11:39:32.946Z,17.27
2023-03-21T11:44:39.070Z,16.50
2023-03-21T11:49:45.292Z,16.26
2023-03-21T11:54:51.662Z,16.16
2023-03-21T11:59:57.800Z,17.96
2023-03-21T12:05:04.181Z,16.59
2023-03-21T12:10:10.260Z,16.01
2023-03-21T12:15:16.416Z,18.51
2023-03-21T12:20:22.460Z,16.40
2023-03-21T12:25:28.765Z,18.74
2023-03-21T12:30:34.989Z,15.53
2023-03-21T12:35:42.016Z,15.03
2023-03-21T12:40:50.845Z,18.01
2023-03-21T12:45:57.310Z,17.97
2023-03-21T12:51:03.419Z,19.02
2023-03-21T12:56:10.709Z,19.19
2023-03-21T13:01:16.850Z,20.17
2023-03-21T13:06:22.940Z,21.90
2023-03-21T13:11:29.155Z,18.39
2023-03-21T13:16:35.538Z,19.54
2023-03-21T13:21:41.701Z,17.77
2023-03-21T13:26:48.059Z,16.97
2023-03-21T13:31:56.698Z,19.97
2023-03-21T13:37:00.006Z,19.91
2023-03-21T13:42:06.450Z,18.94
2023-03-21T13:47:12.576Z,18.86
2023-03-21T13:52:18.719Z,18.78
2023-03-21T13:57:25.050Z,17.01
2023-03-21T14:02:31.386Z,19.55
2023-03-21T14:07:38.413Z,17.45
2023-03-21T14:12:44.487Z,18.79
2023-03-21T14:17:50.650Z,16.42
2023-03-21T14:22:56.708Z,19.11
2023-03-21T14:28:02.960Z,19.22
2023-03-21T14:33:09.016Z,17.20
2023-03-21T14:38:15.194Z,17.94
2023-03-21T14:43:21.289Z,21.74
2023-03-21T14:48:27.677Z,17.37
2023-03-21T14:53:33.881Z,19.01
2023-03-21T14:58:40.123Z,20.29
2023-03-21T15:03:46.300Z,19.81
2023-03-21T15:08:52.573Z,20.61
2023-03-21T15:13:58.779Z,20.46
2023-03-21T15:19:04.986Z,20.78
2023-03-21T15:24:11.080Z,23.19
2023-03-21T15:29:17.294Z,23.81
2023-03-21T15:34:23.395Z,22.69
2023-03-21T15:39:29.696Z,22.95
2023-03-21T15:44:35.926Z,22.37
2023-03-21T15:49:42.248Z,23.00
2023-03-21T15:54:48.360Z,23.54
2023-03-21T15:59:54.607Z,22.02
2023-03-21T16:05:00.690Z,25.75
2023-03-21T16:10:06.896Z,22.73
2023-03-21T16:15:13.138Z,20.34
2023-03-21T16:20:19.396Z,22.83
2023-03-21T16:25:25.634Z,18.70
2023-03-21T16:30:31.988Z,19.39
2023-03-21T16:35:38.110Z,20.78
2023-03-21T16:40:44.367Z,18.41
2023-03-21T16:45:50.500Z,19.13
2023-03-21T16:50:56.684Z,16.88
2023-03-21T16:56:02.817Z,15.72
2023-03-21T17:01:09.204Z,21.50
2023-03-21T17:06:15.294Z,16.64
2023-03-21T17:11:21.520Z,19.39
2023-03-21T17:16:27.698Z,15.64
2023-03-21T17:21:33.834Z,17.54
2023-03-21T17:26:39.910Z,16.38
2023-03-21T17:31:46.864Z,15.29
2023-03-21T17:36:52.937Z,16.99
2023-03-21T17:41:59.227Z,16.53
2023-03-21T17:47:05.324Z,16.86
2023-03-21T17:52:12.063Z,15.56
2023-03-21T17:57:18.268Z,14.62
2023-03-21T18:02:24.458Z,15.68
2023-03-21T18:08:01.986Z,15.23
2023-03-21T18:12:36.365Z,16.14
2023-03-21T18:17:42.849Z,14.13
2023-03-21T18:22:48.842Z,17.68
2023-03-21T18:28:11.831Z,13.96
2023-03-21T18:33:15.350Z,18.64
2023-03-21T18:38:21.498Z,15.93
2023-03-21T18:44:01.133Z,18.24
2023-03-21T18:50:06.071Z,18.60
2023-03-21T18:54:31.194Z,18.37
2023-03-21T18:59:37.310Z,13.48
2023-03-21T19:04:43.523Z,15.67
2023-03-21T19:10:15.316Z,23.19
2023-03-21T19:14:55.386Z,17.77
2023-03-21T19:20:01.545Z,16.44
2023-03-21T19:25:08.010Z,17.56
2023-03-21T19:30:15.731Z,16.39
2023-03-21T19:35:20.389Z,16.22
2023-03-21T19:40:28.090Z,18.07
2023-03-21T19:45:34.621Z,19.35
2023-03-21T19:51:03.436Z,18.95
2023-03-21T19:55:47.285Z,18.70
2023-03-21T20:00:53.626Z,23.67
2023-03-21T20:06:01.099Z,20.55
2023-03-21T20:11:08.416Z,24.37
2023-03-21T20:16:23.008Z,17.30
2023-03-21T20:21:25.336Z,17.85
2023-03-21T20:26:25.313Z,17.46
2023-03-21T20:31:32.045Z,19.65
2023-03-21T20:36:40.908Z,18.51
2023-03-21T20:41:44.035Z,17.82
2023-03-21T20:46:51.469Z,17.13
2023-03-21T20:57:04.069Z,17.27
2023-03-21T21:02:10.091Z,20.81
2023-03-21T21:07:16.306Z,19.44
2023-03-21T21:12:22.417Z,20.13
2023-03-21T21:17:57.974Z,21.07
2023-03-21T21:22:34.205Z,20.33
2023-03-21T21:27:40.621Z,18.62
2023-03-21T21:32:46.802Z,20.42
2023-03-21T21:37:53.022Z,19.20
2023-03-21T21:42:59.114Z,19.19
2023-03-21T21:48:05.422Z,18.81
2023-03-21T21:53:11.521Z,19.97
2023-03-21T21:58:17.699Z,18.59
2023-03-21T22:03:23.905Z,18.38
2023-03-21T22:08:30.119Z,17.20
2023-03-21T22:13:37.303Z,18.01
2023-03-21T22:18:43.707Z,22.00
2023-03-21T22:23:49.775Z,19.08
2023-03-21T22:28:55.975Z,17.89
2023-03-21T22:34:04.785Z,16.91
2023-03-21T22:39:08.413Z,20.47
2023-03-21T22:44:14.508Z,18.26
2023-03-21T22:49:20.726Z,17.29
2023-03-21T22:54:26.909Z,18.62
2023-03-21T22:59:33.206Z,16.09
2023-03-21T23:04:39.444Z,16.86
2023-03-21T23:09:45.628Z,16.36
2023-03-21T23:14:51.688Z,19.38
2023-03-21T23:19:58.152Z,17.36
2023-03-21T23:25:04.379Z,17.33
2023-03-21T23:30:10.556Z,16.14
2023-03-21T23:35:16.648Z,15.26
2023-03-21T23:40:23.665Z,17.60
2023-03-21T23:45:29.804Z,17.13
2023-03-21T23:50:36.111Z,16.37
2023-03-21T23:55:42.226Z,14.01
